sensor_id;sensor_type;location;lat;lon;timestamp;pressure;altitude;pressure_sealevel;temperature;humidity
48364;BME280;34170;54.364;18.582;2023-04-07T00:01:01;100699.09;;;4.89;100.00
48364;BME280;34170;54.364;18.582;2023-04-07T00:03:28;100690.53;;;4.84;100.00
48364;BME280;34170;54.364;18.582;2023-04-07T00:05:57;100683.91;;;4.62;100.00
48364;BME280;34170;54.364;18.582;2023-04-07T00:08:24;100686.94;;;4.70;100.00
48364;BME280;34170;54.364;18.582;2023-04-07T00:10:51;100702.47;;;4.49;100.00
48364;BME280;34170;54.364;18.582;2023-04-07T00:13:19;100681.06;;;4.65;100.00
48364;BME280;34170;54.364;18.582;2023-04-07T00:15:46;100694.81;;;4.72;100.00
48364;BME280;34170;54.364;18.582;2023-04-07T00:18:13;100692.81;;;4.75;100.00
48364;BME280;34170;54.364;18.582;2023-04-07T00:20:41;100684.25;;;4.70;100.00
48364;BME280;34170;54.364;18.582;2023-04-07T00:23:08;100690.13;;;4.90;100.00
48364;BME280;34170;54.364;18.582;2023-04-07T00:25:36;100688.47;;;4.74;100.00
48364;BME280;34170;54.364;18.582;2023-04-07T00:28:03;100673.81;;;4.67;100.00
48364;BME280;34170;54.364;18.582;2023-04-07T00:30:31;100671.53;;;4.61;100.00
48364;BME280;34170;54.364;18.582;2023-04-07T00:32:58;100668.28;;;4.85;100.00
48364;BME280;34170;54.364;18.582;2023-04-07T00:35:25;100678.53;;;4.91;100.00
48364;BME280;34170;54.364;18.582;2023-04-07T00:37:53;100674.53;;;4.84;100.00
48364;BME280;34170;54.364;18.582;2023-04-07T00:40:21;100671.19;;;4.94;100.00
48364;BME280;34170;54.364;18.582;2023-04-07T00:42:48;100668.75;;;5.04;100.00
48364;BME280;34170;54.364;18.582;2023-04-07T00:45:16;100669.28;;;4.96;100.00
48364;BME280;34170;54.364;18.582;2023-04-07T00:47:43;100661.81;;;5.02;100.00
48364;BME280;34170;54.364;18.582;2023-04-07T00:50:11;100651.41;;;4.84;100.00
48364;BME280;34170;54.364;18.582;2023-04-07T00:52:38;100653.09;;;5.00;100.00
48364;BME280;34170;54.364;18.582;2023-04-07T00:55:06;100656.88;;;5.10;100.00
48364;BME280;34170;54.364;18.582;2023-04-07T00:57:34;100649.25;;;5.04;100.00
48364;BME280;34170;54.364;18.582;2023-04-07T01:00:02;100651.72;;;5.07;100.00
48364;BME280;34170;54.364;18.582;2023-04-07T01:02:40;100645.13;;;5.12;100.00
48364;BME280;34170;54.364;18.582;2023-04-07T01:05:16;100654.63;;;5.16;100.00
48364;BME280;34170;54.364;18.582;2023-04-07T01:08:12;100649.00;;;5.21;100.00
48364;BME280;34170;54.364;18.582;2023-04-07T01:10:50;100649.28;;;5.16;100.00
48364;BME280;34170;54.364;18.582;2023-04-07T01:13:31;100654.72;;;5.15;100.00
48364;BME280;34170;54.364;18.582;2023-04-07T01:16:11;100646.72;;;5.15;100.00
48364;BME280;34170;54.364;18.582;2023-04-07T01:18:47;100647.84;;;4.98;100.00
48364;BME280;34170;54.364;18.582;2023-04-07T01:21:17;100643.91;;;5.04;100.00
48364;BME280;34170;54.364;18.582;2023-04-07T01:26:39;100635.22;;;5.14;100.00
48364;BME280;34170;54.364;18.582;2023-04-07T01:29:31;100620.34;;;4.97;100.00
48364;BME280;34170;54.364;18.582;2023-04-07T01:32:03;100628.38;;;5.10;100.00
48364;BME280;34170;54.364;18.582;2023-04-07T01:34:33;100603.06;;;4.90;100.00
48364;BME280;34170;54.364;18.582;2023-04-07T01:37:01;100622.34;;;4.94;100.00
48364;BME280;34170;54.364;18.582;2023-04-07T01:39:29;100619.38;;;4.99;100.00
48364;BME280;34170;54.364;18.582;2023-04-07T01:41:57;100628.16;;;4.86;100.00
48364;BME280;34170;54.364;18.582;2023-04-07T01:44:25;100625.63;;;4.85;100.00
48364;BME280;34170;54.364;18.582;2023-04-07T01:46:55;100623.00;;;4.97;100.00
48364;BME280;34170;54.364;18.582;2023-04-07T01:49:24;100617.41;;;4.88;100.00
48364;BME280;34170;54.364;18.582;2023-04-07T01:51:53;100619.88;;;4.91;100.00
48364;BME280;34170;54.364;18.582;2023-04-07T01:54:21;100620.31;;;4.85;100.00
48364;BME280;34170;54.364;18.582;2023-04-07T01:56:49;100621.94;;;5.00;100.00
48364;BME280;34170;54.364;18.582;2023-04-07T01:59:17;100629.00;;;5.01;100.00
48364;BME280;34170;54.364;18.582;2023-04-07T02:01:45;100619.94;;;5.04;100.00
48364;BME280;34170;54.364;18.582;2023-04-07T02:07:04;100616.31;;;4.77;100.00
48364;BME280;34170;54.364;18.582;2023-04-07T02:09:39;100622.75;;;4.88;100.00
48364;BME280;34170;54.364;18.582;2023-04-07T02:12:11;100627.22;;;4.87;100.00
48364;BME280;34170;54.364;18.582;2023-04-07T02:14:44;100633.41;;;4.88;100.00
48364;BME280;34170;54.364;18.582;2023-04-07T02:17:15;100632.22;;;5.06;100.00
48364;BME280;34170;54.364;18.582;2023-04-07T02:19:45;100632.88;;;5.10;100.00
48364;BME280;34170;54.364;18.582;2023-04-07T02:22:14;100634.94;;;4.92;100.00
48364;BME280;34170;54.364;18.582;2023-04-07T02:24:42;100634.66;;;4.82;100.00
48364;BME280;34170;54.364;18.582;2023-04-07T02:27:10;100627.03;;;4.90;100.00
48364;BME280;34170;54.364;18.582;2023-04-07T02:29:37;100636.66;;;5.06;100.00
48364;BME280;34170;54.364;18.582;2023-04-07T02:32:05;100630.75;;;4.88;100.00
48364;BME280;34170;54.364;18.582;2023-04-07T02:34:32;100631.94;;;4.96;100.00
48364;BME280;34170;54.364;18.582;2023-04-07T02:37:00;100625.03;;;4.94;100.00
48364;BME280;34170;54.364;18.582;2023-04-07T02:39:27;100624.47;;;4.89;100.00
48364;BME280;34170;54.364;18.582;2023-04-07T02:41:55;100613.34;;;4.55;100.00
48364;BME280;34170;54.364;18.582;2023-04-07T02:44:22;100621.66;;;4.77;100.00
48364;BME280;34170;54.364;18.582;2023-04-07T02:46:50;100618.25;;;5.03;100.00
48364;BME280;34170;54.364;18.582;2023-04-07T02:49:17;100613.88;;;5.14;100.00
48364;BME280;34170;54.364;18.582;2023-04-07T02:51:45;100616.88;;;5.10;100.00
48364;BME280;34170;54.364;18.582;2023-04-07T02:54:13;100619.63;;;5.08;100.00
48364;BME280;34170;54.364;18.582;2023-04-07T02:56:40;100610.41;;;5.27;100.00
48364;BME280;34170;54.364;18.582;2023-04-07T02:59:08;100614.53;;;5.18;100.00
48364;BME280;34170;54.364;18.582;2023-04-07T03:01:40;100613.50;;;5.21;100.00
48364;BME280;34170;54.364;18.582;2023-04-07T03:04:07;100616.09;;;4.81;100.00
48364;BME280;34170;54.364;18.582;2023-04-07T03:06:35;100607.44;;;5.04;100.00
48364;BME280;34170;54.364;18.582;2023-04-07T03:09:08;100614.69;;;5.29;100.00
48364;BME280;34170;54.364;18.582;2023-04-07T03:11:36;100608.81;;;5.37;100.00
48364;BME280;34170;54.364;18.582;2023-04-07T03:14:03;100612.88;;;5.30;100.00
48364;BME280;34170;54.364;18.582;2023-04-07T03:16:32;100606.22;;;5.23;100.00
48364;BME280;34170;54.364;18.582;2023-04-07T03:19:04;100604.63;;;5.20;100.00
48364;BME280;34170;54.364;18.582;2023-04-07T03:21:37;100597.34;;;5.09;100.00
48364;BME280;34170;54.364;18.582;2023-04-07T03:24:05;100607.50;;;5.17;100.00
48364;BME280;34170;54.364;18.582;2023-04-07T03:26:33;100614.78;;;5.28;100.00
48364;BME280;34170;54.364;18.582;2023-04-07T03:29:02;100614.47;;;5.32;100.00
48364;BME280;34170;54.364;18.582;2023-04-07T03:31:31;100619.47;;;5.24;100.00
48364;BME280;34170;54.364;18.582;2023-04-07T03:33:58;100616.47;;;5.29;100.00
48364;BME280;34170;54.364;18.582;2023-04-07T03:36:26;100621.13;;;5.12;100.00
48364;BME280;34170;54.364;18.582;2023-04-07T03:38:57;100609.91;;;5.07;100.00
48364;BME280;34170;54.364;18.582;2023-04-07T03:41:24;100611.72;;;5.07;100.00
48364;BME280;34170;54.364;18.582;2023-04-07T03:43:52;100606.13;;;5.24;100.00
48364;BME280;34170;54.364;18.582;2023-04-07T03:46:20;100607.59;;;5.15;100.00
48364;BME280;34170;54.364;18.582;2023-04-07T03:48:47;100612.06;;;5.15;100.00
48364;BME280;34170;54.364;18.582;2023-04-07T03:51:15;100611.28;;;5.00;100.00
48364;BME280;34170;54.364;18.582;2023-04-07T03:53:45;100610.00;;;5.06;100.00
48364;BME280;34170;54.364;18.582;2023-04-07T03:56:25;100606.78;;;5.01;100.00
48364;BME280;34170;54.364;18.582;2023-04-07T03:58:56;100612.47;;;5.09;100.00
48364;BME280;34170;54.364;18.582;2023-04-07T04:01:28;100609.94;;;5.20;100.00
48364;BME280;34170;54.364;18.582;2023-04-07T04:03:58;100610.63;;;4.96;100.00
48364;BME280;34170;54.364;18.582;2023-04-07T04:06:29;100607.31;;;4.93;100.00
48364;BME280;34170;54.364;18.582;2023-04-07T04:09:08;100615.38;;;5.19;100.00
48364;BME280;34170;54.364;18.582;2023-04-07T04:11:41;100616.47;;;5.29;100.00
48364;BME280;34170;54.364;18.582;2023-04-07T04:14:08;100601.84;;;5.22;100.00
48364;BME280;34170;54.364;18.582;2023-04-07T04:16:37;100607.06;;;5.10;100.00
48364;BME280;34170;54.364;18.582;2023-04-07T04:19:13;100618.75;;;5.08;100.00
48364;BME280;34170;54.364;18.582;2023-04-07T04:21:41;100611.03;;;5.30;100.00
48364;BME280;34170;54.364;18.582;2023-04-07T04:24:09;100628.44;;;5.36;100.00
48364;BME280;34170;54.364;18.582;2023-04-07T04:26:37;100616.66;;;5.13;100.00
48364;BME280;34170;54.364;18.582;2023-04-07T04:29:09;100624.16;;;5.21;100.00
48364;BME280;34170;54.364;18.582;2023-04-07T04:31:39;100621.19;;;5.38;100.00
48364;BME280;34170;54.364;18.582;2023-04-07T04:34:07;100622.34;;;5.34;100.00
48364;BME280;34170;54.364;18.582;2023-04-07T04:36:34;100631.81;;;5.25;100.00
48364;BME280;34170;54.364;18.582;2023-04-07T04:39:05;100615.34;;;5.33;100.00
48364;BME280;34170;54.364;18.582;2023-04-07T04:41:34;100611.69;;;5.34;100.00
48364;BME280;34170;54.364;18.582;2023-04-07T04:44:02;100617.22;;;5.31;100.00
48364;BME280;34170;54.364;18.582;2023-04-07T04:46:30;100621.25;;;5.24;100.00
48364;BME280;34170;54.364;18.582;2023-04-07T04:48:58;100607.09;;;5.36;100.00
48364;BME280;34170;54.364;18.582;2023-04-07T04:51:26;100593.94;;;5.20;100.00
48364;BME280;34170;54.364;18.582;2023-04-07T04:54:00;100602.94;;;5.32;100.00
48364;BME280;34170;54.364;18.582;2023-04-07T04:56:29;100588.13;;;5.28;100.00
48364;BME280;34170;54.364;18.582;2023-04-07T04:58:56;100602.00;;;5.46;100.00
48364;BME280;34170;54.364;18.582;2023-04-07T05:01:32;100596.03;;;5.42;100.00
48364;BME280;34170;54.364;18.582;2023-04-07T05:04:05;100587.06;;;5.43;100.00
48364;BME280;34170;54.364;18.582;2023-04-07T05:06:33;100585.22;;;5.31;100.00
48364;BME280;34170;54.364;18.582;2023-04-07T05:09:06;100602.56;;;5.51;100.00
48364;BME280;34170;54.364;18.582;2023-04-07T05:11:42;100616.94;;;5.48;100.00
48364;BME280;34170;54.364;18.582;2023-04-07T05:14:09;100614.56;;;5.31;100.00
48364;BME280;34170;54.364;18.582;2023-04-07T05:16:41;100611.97;;;5.16;100.00
48364;BME280;34170;54.364;18.582;2023-04-07T05:19:15;100612.03;;;5.42;100.00
48364;BME280;34170;54.364;18.582;2023-04-07T05:21:43;100616.28;;;5.45;100.00
48364;BME280;34170;54.364;18.582;2023-04-07T05:24:11;100617.56;;;5.26;100.00
48364;BME280;34170;54.364;18.582;2023-04-07T05:26:38;100615.00;;;5.38;100.00
48364;BME280;34170;54.364;18.582;2023-04-07T05:29:07;100608.84;;;5.50;100.00
48364;BME280;34170;54.364;18.582;2023-04-07T05:31:34;100615.03;;;5.50;100.00
48364;BME280;34170;54.364;18.582;2023-04-07T05:34:07;100603.28;;;5.40;100.00
48364;BME280;34170;54.364;18.582;2023-04-07T05:36:41;100608.47;;;5.29;100.00
48364;BME280;34170;54.364;18.582;2023-04-07T05:39:09;100618.03;;;5.59;100.00
48364;BME280;34170;54.364;18.582;2023-04-07T05:41:36;100620.44;;;5.49;100.00
48364;BME280;34170;54.364;18.582;2023-04-07T05:44:04;100628.13;;;5.41;100.00
48364;BME280;34170;54.364;18.582;2023-04-07T05:46:36;100625.03;;;5.47;100.00
48364;BME280;34170;54.364;18.582;2023-04-07T05:49:04;100624.84;;;5.63;100.00
48364;BME280;34170;54.364;18.582;2023-04-07T05:51:49;100614.81;;;5.41;100.00
48364;BME280;34170;54.364;18.582;2023-04-07T05:54:16;100618.19;;;5.30;100.00
48364;BME280;34170;54.364;18.582;2023-04-07T05:56:43;100621.00;;;5.54;100.00
48364;BME280;34170;54.364;18.582;2023-04-07T05:59:11;100630.63;;;5.57;100.00
48364;BME280;34170;54.364;18.582;2023-04-07T06:01:38;100625.28;;;5.57;100.00
48364;BME280;34170;54.364;18.582;2023-04-07T06:04:07;100631.56;;;5.68;100.00
48364;BME280;34170;54.364;18.582;2023-04-07T06:06:35;100645.59;;;5.85;100.00
48364;BME280;34170;54.364;18.582;2023-04-07T06:09:02;100636.44;;;6.02;100.00
48364;BME280;34170;54.364;18.582;2023-04-07T06:11:33;100620.41;;;5.89;100.00
48364;BME280;34170;54.364;18.582;2023-04-07T06:14:00;100617.19;;;5.84;100.00
48364;BME280;34170;54.364;18.582;2023-04-07T06:16:27;100618.50;;;6.04;100.00
48364;BME280;34170;54.364;18.582;2023-04-07T06:18:55;100625.19;;;5.71;100.00
48364;BME280;34170;54.364;18.582;2023-04-07T06:21:23;100637.56;;;5.72;100.00
48364;BME280;34170;54.364;18.582;2023-04-07T06:23:51;100632.75;;;5.51;100.00
48364;BME280;34170;54.364;18.582;2023-04-07T06:26:18;100645.34;;;5.62;100.00
48364;BME280;34170;54.364;18.582;2023-04-07T06:28:47;100652.06;;;5.55;100.00
48364;BME280;34170;54.364;18.582;2023-04-07T06:31:16;100633.94;;;5.60;100.00
48364;BME280;34170;54.364;18.582;2023-04-07T06:33:44;100644.53;;;5.75;100.00
48364;BME280;34170;54.364;18.582;2023-04-07T06:36:12;100644.16;;;5.53;100.00
48364;BME280;34170;54.364;18.582;2023-04-07T06:38:40;100645.72;;;5.96;100.00
48364;BME280;34170;54.364;18.582;2023-04-07T06:41:07;100650.81;;;5.73;100.00
48364;BME280;34170;54.364;18.582;2023-04-07T06:43:37;100651.53;;;5.63;100.00
48364;BME280;34170;54.364;18.582;2023-04-07T06:46:07;100645.34;;;5.62;100.00
48364;BME280;34170;54.364;18.582;2023-04-07T06:48:34;100651.78;;;5.85;100.00
48364;BME280;34170;54.364;18.582;2023-04-07T06:51:02;100647.50;;;5.83;100.00
48364;BME280;34170;54.364;18.582;2023-04-07T06:53:29;100646.94;;;5.65;100.00
48364;BME280;34170;54.364;18.582;2023-04-07T06:56:06;100651.81;;;5.98;100.00
48364;BME280;34170;54.364;18.582;2023-04-07T06:58:35;100651.34;;;5.66;100.00
48364;BME280;34170;54.364;18.582;2023-04-07T07:01:04;100651.50;;;5.37;100.00
48364;BME280;34170;54.364;18.582;2023-04-07T07:03:32;100656.25;;;5.72;100.00
48364;BME280;34170;54.364;18.582;2023-04-07T07:06:00;100655.63;;;5.81;100.00
48364;BME280;34170;54.364;18.582;2023-04-07T07:08:28;100649.22;;;5.84;100.00
48364;BME280;34170;54.364;18.582;2023-04-07T07:10:57;100645.81;;;5.95;100.00
48364;BME280;34170;54.364;18.582;2023-04-07T07:13:25;100656.31;;;5.98;100.00
48364;BME280;34170;54.364;18.582;2023-04-07T07:15:53;100658.16;;;5.83;100.00
48364;BME280;34170;54.364;18.582;2023-04-07T07:18:21;100657.72;;;5.63;100.00
48364;BME280;34170;54.364;18.582;2023-04-07T07:20:49;100668.94;;;5.68;100.00
48364;BME280;34170;54.364;18.582;2023-04-07T07:23:17;100665.91;;;6.00;100.00
48364;BME280;34170;54.364;18.582;2023-04-07T07:25:44;100666.31;;;5.94;100.00
48364;BME280;34170;54.364;18.582;2023-04-07T07:28:11;100664.78;;;5.77;100.00
48364;BME280;34170;54.364;18.582;2023-04-07T07:30:39;100649.69;;;5.50;100.00
48364;BME280;34170;54.364;18.582;2023-04-07T07:33:07;100654.31;;;5.74;100.00
48364;BME280;34170;54.364;18.582;2023-04-07T07:35:35;100658.41;;;5.92;100.00
48364;BME280;34170;54.364;18.582;2023-04-07T07:38:03;100654.31;;;5.74;100.00
48364;BME280;34170;54.364;18.582;2023-04-07T07:40:32;100661.00;;;6.20;100.00
48364;BME280;34170;54.364;18.582;2023-04-07T07:42:59;100667.59;;;6.40;100.00
48364;BME280;34170;54.364;18.582;2023-04-07T07:45:27;100657.69;;;6.16;100.00
48364;BME280;34170;54.364;18.582;2023-04-07T07:47:54;100662.59;;;6.09;100.00
48364;BME280;34170;54.364;18.582;2023-04-07T07:50:22;100658.38;;;6.57;100.00
48364;BME280;34170;54.364;18.582;2023-04-07T07:52:49;100667.47;;;6.41;100.00
48364;BME280;34170;54.364;18.582;2023-04-07T07:55:17;100660.97;;;6.33;100.00
48364;BME280;34170;54.364;18.582;2023-04-07T07:57:44;100655.53;;;6.21;100.00
48364;BME280;34170;54.364;18.582;2023-04-07T08:00:12;100656.50;;;6.07;100.00
48364;BME280;34170;54.364;18.582;2023-04-07T08:02:39;100661.72;;;6.35;100.00
48364;BME280;34170;54.364;18.582;2023-04-07T08:05:07;100666.03;;;6.61;100.00
48364;BME280;34170;54.364;18.582;2023-04-07T08:07:35;100674.53;;;6.29;100.00
48364;BME280;34170;54.364;18.582;2023-04-07T08:10:02;100675.44;;;6.17;100.00
48364;BME280;34170;54.364;18.582;2023-04-07T08:12:30;100676.03;;;6.34;100.00
48364;BME280;34170;54.364;18.582;2023-04-07T08:14:57;100663.84;;;6.29;100.00
48364;BME280;34170;54.364;18.582;2023-04-07T08:17:25;100665.97;;;6.50;100.00
48364;BME280;34170;54.364;18.582;2023-04-07T08:19:52;100665.69;;;6.16;100.00
48364;BME280;34170;54.364;18.582;2023-04-07T08:22:20;100658.72;;;6.39;100.00
48364;BME280;34170;54.364;18.582;2023-04-07T08:24:47;100645.78;;;6.83;100.00
48364;BME280;34170;54.364;18.582;2023-04-07T08:27:14;100660.41;;;6.90;100.00
48364;BME280;34170;54.364;18.582;2023-04-07T08:29:42;100649.38;;;7.19;100.00
48364;BME280;34170;54.364;18.582;2023-04-07T08:32:09;100667.81;;;7.11;100.00
48364;BME280;34170;54.364;18.582;2023-04-07T08:34:37;100656.53;;;7.42;100.00
48364;BME280;34170;54.364;18.582;2023-04-07T08:37:04;100661.25;;;7.74;100.00
48364;BME280;34170;54.364;18.582;2023-04-07T08:39:32;100678.53;;;7.81;100.00
48364;BME280;34170;54.364;18.582;2023-04-07T08:42:00;100671.78;;;7.29;100.00
48364;BME280;34170;54.364;18.582;2023-04-07T08:44:28;100659.44;;;7.15;100.00
48364;BME280;34170;54.364;18.582;2023-04-07T08:46:56;100664.69;;;6.93;100.00
48364;BME280;34170;54.364;18.582;2023-04-07T08:49:27;100671.34;;;7.35;100.00
48364;BME280;34170;54.364;18.582;2023-04-07T08:51:57;100661.63;;;7.45;100.00
48364;BME280;34170;54.364;18.582;2023-04-07T08:54:27;100670.72;;;7.32;100.00
48364;BME280;34170;54.364;18.582;2023-04-07T08:56:54;100669.28;;;7.39;100.00
48364;BME280;34170;54.364;18.582;2023-04-07T08:59:22;100659.72;;;7.48;100.00
48364;BME280;34170;54.364;18.582;2023-04-07T09:01:53;100669.75;;;7.09;100.00
48364;BME280;34170;54.364;18.582;2023-04-07T09:04:21;100659.31;;;7.17;100.00
48364;BME280;34170;54.364;18.582;2023-04-07T09:06:51;100654.63;;;7.56;100.00
48364;BME280;34170;54.364;18.582;2023-04-07T09:09:19;100665.19;;;7.46;100.00
48364;BME280;34170;54.364;18.582;2023-04-07T09:11:47;100659.94;;;7.44;100.00
48364;BME280;34170;54.364;18.582;2023-04-07T09:14:14;100646.03;;;7.28;100.00
48364;BME280;34170;54.364;18.582;2023-04-07T09:16:42;100653.91;;;7.30;100.00
48364;BME280;34170;54.364;18.582;2023-04-07T09:19:10;100645.50;;;7.23;100.00
48364;BME280;34170;54.364;18.582;2023-04-07T09:21:50;100639.25;;;7.35;100.00
48364;BME280;34170;54.364;18.582;2023-04-07T09:26:49;100632.25;;;7.21;100.00
48364;BME280;34170;54.364;18.582;2023-04-07T09:29:19;100635.66;;;7.23;100.00
48364;BME280;34170;54.364;18.582;2023-04-07T09:31:47;100636.78;;;7.68;100.00
48364;BME280;34170;54.364;18.582;2023-04-07T09:36:49;100639.19;;;7.24;100.00
48364;BME280;34170;54.364;18.582;2023-04-07T09:39:17;100642.34;;;7.53;100.00
48364;BME280;34170;54.364;18.582;2023-04-07T09:41:45;100650.78;;;7.71;100.00
48364;BME280;34170;54.364;18.582;2023-04-07T09:44:13;100639.25;;;7.35;100.00
48364;BME280;34170;54.364;18.582;2023-04-07T09:46:54;100644.22;;;7.87;100.00
48364;BME280;34170;54.364;18.582;2023-04-07T09:49:24;100644.19;;;7.64;100.00
48364;BME280;34170;54.364;18.582;2023-04-07T09:51:53;100654.41;;;7.70;100.00
48364;BME280;34170;54.364;18.582;2023-04-07T09:57:06;100641.22;;;7.44;100.00
48364;BME280;34170;54.364;18.582;2023-04-07T09:59:36;100658.09;;;7.69;100.00
48364;BME280;34170;54.364;18.582;2023-04-07T10:02:04;100643.28;;;7.41;100.00
48364;BME280;34170;54.364;18.582;2023-04-07T10:04:32;100651.09;;;7.55;100.00
48364;BME280;34170;54.364;18.582;2023-04-07T10:07:00;100654.66;;;7.67;100.00
48364;BME280;34170;54.364;18.582;2023-04-07T10:09:29;100652.69;;;8.16;100.00
48364;BME280;34170;54.364;18.582;2023-04-07T10:11:58;100660.88;;;8.48;100.00
48364;BME280;34170;54.364;18.582;2023-04-07T10:14:29;100653.91;;;8.46;100.00
48364;BME280;34170;54.364;18.582;2023-04-07T10:16:59;100658.31;;;8.69;100.00
48364;BME280;34170;54.364;18.582;2023-04-07T10:19:31;100645.97;;;8.33;100.00
48364;BME280;34170;54.364;18.582;2023-04-07T10:22:02;100655.50;;;8.59;100.00
48364;BME280;34170;54.364;18.582;2023-04-07T10:27:28;100657.69;;;8.66;100.00
48364;BME280;34170;54.364;18.582;2023-04-07T10:29:57;100654.28;;;8.41;100.00
48364;BME280;34170;54.364;18.582;2023-04-07T10:32:26;100651.81;;;8.04;100.00
48364;BME280;34170;54.364;18.582;2023-04-07T10:37:21;100642.31;;;8.79;100.00
48364;BME280;34170;54.364;18.582;2023-04-07T10:39:51;100649.91;;;8.51;100.00
48364;BME280;34170;54.364;18.582;2023-04-07T10:45:08;100638.78;;;8.33;100.00
48364;BME280;34170;54.364;18.582;2023-04-07T10:50:27;100651.59;;;8.64;100.00
48364;BME280;34170;54.364;18.582;2023-04-07T10:55:42;100647.84;;;8.55;100.00
48364;BME280;34170;54.364;18.582;2023-04-07T10:58:32;100635.75;;;8.72;100.00
48364;BME280;34170;54.364;18.582;2023-04-07T11:03:29;100633.75;;;8.96;100.00
48364;BME280;34170;54.364;18.582;2023-04-07T11:08:42;100637.44;;;9.49;97.67
48364;BME280;34170;54.364;18.582;2023-04-07T11:11:15;100634.59;;;9.29;97.89
48364;BME280;34170;54.364;18.582;2023-04-07T11:13:47;100618.59;;;9.28;96.86
48364;BME280;34170;54.364;18.582;2023-04-07T11:16:17;100641.00;;;10.01;94.45
48364;BME280;34170;54.364;18.582;2023-04-07T11:18:46;100644.44;;;10.03;91.57
48364;BME280;34170;54.364;18.582;2023-04-07T11:21:18;100627.19;;;10.06;91.93
48364;BME280;34170;54.364;18.582;2023-04-07T11:23:46;100631.25;;;10.00;91.58
48364;BME280;34170;54.364;18.582;2023-04-07T11:26:15;100639.34;;;10.31;90.63
48364;BME280;34170;54.364;18.582;2023-04-07T11:28:47;100623.56;;;9.65;91.67
48364;BME280;34170;54.364;18.582;2023-04-07T11:31:26;100620.38;;;10.02;90.66
48364;BME280;34170;54.364;18.582;2023-04-07T11:33:55;100636.28;;;10.36;88.65
48364;BME280;34170;54.364;18.582;2023-04-07T11:36:36;100640.84;;;10.55;87.67
48364;BME280;34170;54.364;18.582;2023-04-07T11:39:04;100627.09;;;10.17;87.36
48364;BME280;34170;54.364;18.582;2023-04-07T11:41:32;100621.75;;;9.96;93.04
48364;BME280;34170;54.364;18.582;2023-04-07T11:44:06;100622.09;;;10.74;87.36
48364;BME280;34170;54.364;18.582;2023-04-07T11:46:35;100624.00;;;10.53;87.07
48364;BME280;34170;54.364;18.582;2023-04-07T11:49:11;100619.88;;;11.38;82.17
48364;BME280;34170;54.364;18.582;2023-04-07T11:51:41;100622.00;;;11.34;82.34
48364;BME280;34170;54.364;18.582;2023-04-07T11:54:09;100633.19;;;11.69;79.96
48364;BME280;34170;54.364;18.582;2023-04-07T11:56:42;100626.94;;;11.00;82.51
48364;BME280;34170;54.364;18.582;2023-04-07T11:59:23;100625.53;;;10.96;82.56
48364;BME280;34170;54.364;18.582;2023-04-07T12:01:51;100622.56;;;11.57;81.20
48364;BME280;34170;54.364;18.582;2023-04-07T12:04:23;100624.94;;;11.60;80.18
48364;BME280;34170;54.364;18.582;2023-04-07T12:06:50;100618.28;;;10.96;81.49
48364;BME280;34170;54.364;18.582;2023-04-07T12:09:26;100625.53;;;11.44;81.85
48364;BME280;34170;54.364;18.582;2023-04-07T12:11:56;100626.09;;;10.99;83.24
48364;BME280;34170;54.364;18.582;2023-04-07T12:14:24;100616.47;;;10.97;81.54
48364;BME280;34170;54.364;18.582;2023-04-07T12:16:54;100623.94;;;10.83;82.26
48364;BME280;34170;54.364;18.582;2023-04-07T12:19:25;100613.34;;;10.92;84.35
48364;BME280;34170;54.364;18.582;2023-04-07T12:21:57;100625.13;;;11.49;80.13
48364;BME280;34170;54.364;18.582;2023-04-07T12:24:24;100619.28;;;11.05;80.38
48364;BME280;34170;54.364;18.582;2023-04-07T12:26:52;100614.56;;;10.27;85.35
48364;BME280;34170;54.364;18.582;2023-04-07T12:29:19;100622.91;;;10.55;85.10
48364;BME280;34170;54.364;18.582;2023-04-07T12:31:47;100621.56;;;11.00;82.07
48364;BME280;34170;54.364;18.582;2023-04-07T12:34:17;100619.22;;;10.25;85.71
48364;BME280;34170;54.364;18.582;2023-04-07T12:36:45;100618.09;;;9.97;87.19
48364;BME280;34170;54.364;18.582;2023-04-07T12:39:15;100626.69;;;10.22;88.06
48364;BME280;34170;54.364;18.582;2023-04-07T12:41:43;100637.22;;;10.04;86.02
48364;BME280;34170;54.364;18.582;2023-04-07T12:44:12;100637.13;;;10.36;87.19
48364;BME280;34170;54.364;18.582;2023-04-07T12:46:39;100632.69;;;10.04;86.33
48364;BME280;34170;54.364;18.582;2023-04-07T12:49:07;100639.16;;;10.54;85.34
48364;BME280;34170;54.364;18.582;2023-04-07T12:51:34;100637.34;;;9.60;89.29
48364;BME280;34170;54.364;18.582;2023-04-07T12:54:02;100632.91;;;9.17;92.89
48364;BME280;34170;54.364;18.582;2023-04-07T12:56:30;100632.97;;;9.06;95.87
48364;BME280;34170;54.364;18.582;2023-04-07T12:58:58;100632.47;;;8.34;99.72
48364;BME280;34170;54.364;18.582;2023-04-07T13:01:26;100635.31;;;8.44;98.78
48364;BME280;34170;54.364;18.582;2023-04-07T13:03:53;100639.09;;;8.96;97.42
48364;BME280;34170;54.364;18.582;2023-04-07T13:06:21;100627.53;;;9.28;93.64
48364;BME280;34170;54.364;18.582;2023-04-07T13:08:48;100650.63;;;9.20;93.04
48364;BME280;34170;54.364;18.582;2023-04-07T13:11:16;100638.09;;;9.09;91.96
48364;BME280;34170;54.364;18.582;2023-04-07T13:13:43;100641.50;;;9.11;92.98
48364;BME280;34170;54.364;18.582;2023-04-07T13:16:11;100647.63;;;9.34;89.99
48364;BME280;34170;54.364;18.582;2023-04-07T13:18:38;100657.13;;;9.38;88.35
48364;BME280;34170;54.364;18.582;2023-04-07T13:21:06;100647.09;;;9.08;89.77
48364;BME280;34170;54.364;18.582;2023-04-07T13:23:53;100639.31;;;9.05;91.87